createdAt,value
2023-01-05T00:01:22.499Z,114.65
2023-01-05T00:03:49.482Z,117.82
2023-01-05T00:06:18.432Z,121.32
2023-01-05T00:08:46.283Z,118.40
2023-01-05T00:11:38.408Z,113.88
2023-01-05T00:14:25.056Z,117.43
2023-01-05T00:17:10.440Z,119.70
2023-01-05T00:19:55.932Z,113.15
2023-01-05T00:22:38.691Z,115.50
2023-01-05T00:25:13.078Z,100.00
2023-01-05T00:27:45.053Z,84.03
2023-01-05T00:30:14.972Z,99.78
2023-01-05T00:32:43.269Z,79.35
2023-01-05T00:35:13.897Z,72.55
2023-01-05T00:37:41.665Z,83.85
2023-01-05T00:40:11.510Z,88.18
2023-01-05T00:42:38.912Z,89.72
2023-01-05T00:45:08.906Z,89.05
2023-01-05T00:47:36.295Z,82.03
2023-01-05T00:50:03.728Z,94.78
2023-01-05T00:52:30.678Z,96.05
2023-01-05T00:54:57.710Z,97.35
2023-01-05T00:57:24.910Z,98.18
2023-01-05T00:59:52.341Z,102.88
2023-01-05T01:02:20.048Z,113.00
2023-01-05T01:04:47.240Z,106.88
2023-01-05T01:07:14.385Z,114.32
2023-01-05T01:09:41.634Z,109.95
2023-01-05T01:12:08.686Z,100.47
2023-01-05T01:14:35.850Z,80.75
2023-01-05T01:17:02.986Z,85.45
2023-01-05T01:19:30.114Z,79.05
2023-01-05T01:21:57.051Z,82.15
2023-01-05T01:24:27.653Z,77.72
2023-01-05T01:26:56.005Z,80.80
2023-01-05T01:29:24.070Z,87.35
2023-01-05T01:31:53.427Z,85.53
2023-01-05T01:34:21.092Z,92.72
2023-01-05T01:36:48.553Z,83.78
2023-01-05T01:39:16.000Z,90.18
2023-01-05T01:41:43.410Z,82.55
2023-01-05T01:44:47.897Z,91.50
2023-01-05T01:47:23.008Z,85.97
2023-01-05T01:49:51.361Z,81.70
2023-01-05T01:52:19.708Z,85.50
2023-01-05T01:54:46.964Z,80.65
2023-01-05T01:57:15.444Z,68.03
2023-01-05T01:59:43.032Z,65.95
2023-01-05T02:02:12.651Z,60.20
2023-01-05T02:04:40.519Z,61.80
2023-01-05T02:07:09.716Z,76.72
2023-01-05T02:09:37.193Z,61.22
2023-01-05T02:12:25.434Z,59.40
2023-01-05T02:15:11.520Z,53.33
2023-01-05T02:17:46.442Z,51.38
2023-01-05T02:20:22.375Z,56.80
2023-01-05T02:22:58.515Z,56.33
2023-01-05T02:25:37.312Z,57.55
2023-01-05T02:28:23.166Z,64.82
2023-01-05T02:31:02.110Z,58.00
2023-01-05T02:33:56.794Z,51.47
2023-01-05T02:36:29.874Z,51.00
2023-01-05T02:39:18.061Z,52.25
2023-01-05T02:41:47.802Z,43.13
2023-01-05T02:44:20.345Z,46.53
2023-01-05T02:46:59.040Z,44.05
2023-01-05T02:49:27.536Z,44.65
2023-01-05T02:51:57.873Z,45.97
2023-01-05T02:54:31.728Z,45.80
2023-01-05T02:57:05.216Z,42.88
2023-01-05T02:59:40.087Z,42.05
2023-01-05T03:02:16.283Z,45.80
2023-01-05T03:04:48.663Z,47.55
2023-01-05T03:07:22.009Z,45.83
2023-01-05T03:12:47.638Z,40.90
2023-01-05T03:15:23.910Z,40.53
2023-01-05T03:17:58.283Z,39.50
2023-01-05T03:20:29.839Z,40.83
2023-01-05T03:23:18.174Z,41.22
2023-01-05T03:26:05.020Z,42.67
2023-01-05T03:29:17.503Z,40.70
2023-01-05T03:32:33.089Z,37.88
2023-01-05T03:35:30.602Z,35.60
2023-01-05T03:38:17.841Z,39.88
2023-01-05T03:40:46.962Z,36.33
2023-01-05T03:43:14.243Z,34.72
2023-01-05T03:45:44.473Z,38.20
2023-01-05T03:48:11.494Z,36.13
2023-01-05T03:50:38.628Z,35.97
2023-01-05T03:53:05.753Z,39.28
2023-01-05T03:55:32.798Z,29.88
2023-01-05T03:57:59.784Z,36.08
2023-01-05T04:00:26.981Z,37.58
2023-01-05T04:02:54.465Z,32.83
2023-01-05T04:05:21.659Z,31.58
2023-01-05T04:07:48.687Z,37.67
2023-01-05T04:10:15.784Z,34.40
2023-01-05T04:12:42.840Z,38.30
2023-01-05T04:15:10.580Z,32.78
2023-01-05T04:17:37.621Z,37.88
2023-01-05T04:20:06.219Z,36.97
2023-01-05T04:22:33.507Z,37.20
2023-01-05T04:25:00.565Z,39.30
2023-01-05T04:27:27.859Z,48.97
2023-01-05T04:29:54.813Z,46.35
2023-01-05T04:32:21.838Z,45.38
2023-01-05T04:34:49.014Z,42.20
2023-01-05T04:37:16.036Z,41.90
2023-01-05T04:39:43.265Z,42.70
2023-01-05T04:42:10.214Z,47.72
2023-01-05T04:44:37.244Z,51.35
2023-01-05T04:47:04.300Z,44.50
2023-01-05T04:49:31.253Z,45.47
2023-01-05T04:51:58.357Z,49.13
2023-01-05T04:54:25.330Z,44.50
2023-01-05T04:56:52.306Z,51.05
2023-01-05T04:59:19.479Z,51.03
2023-01-05T05:01:46.724Z,47.47
2023-01-05T05:04:13.831Z,42.35
2023-01-05T05:06:40.883Z,43.17
2023-01-05T05:09:08.029Z,47.45
2023-01-05T05:11:35.034Z,47.88
2023-01-05T05:14:02.055Z,48.85
2023-01-05T05:16:29.131Z,44.00
2023-01-05T05:18:56.354Z,57.80
2023-01-05T05:21:23.475Z,63.08
2023-01-05T05:23:50.453Z,58.72
2023-01-05T05:26:17.531Z,59.97
2023-01-05T05:28:44.657Z,48.05
2023-01-05T05:31:11.661Z,44.60
2023-01-05T05:33:38.664Z,39.92
2023-01-05T05:36:06.585Z,36.08
2023-01-05T05:38:33.621Z,43.95
2023-01-05T05:41:00.770Z,37.00
2023-01-05T05:43:27.811Z,34.75
2023-01-05T05:45:54.817Z,43.35
2023-01-05T05:48:21.727Z,47.33
2023-01-05T05:50:48.756Z,44.80
2023-01-05T05:53:16.095Z,51.42
2023-01-05T05:55:43.204Z,65.63
2023-01-05T05:58:10.454Z,61.35
2023-01-05T06:00:37.690Z,58.47
2023-01-05T06:03:05.158Z,60.10
2023-01-05T06:05:32.737Z,57.35
2023-01-05T06:07:59.773Z,63.88
2023-01-05T06:10:27.025Z,85.18
2023-01-05T06:12:55.083Z,84.07
2023-01-05T06:15:23.333Z,75.47
2023-01-05T06:17:50.565Z,75.57
2023-01-05T06:20:18.219Z,73.57
2023-01-05T06:22:45.506Z,66.65
2023-01-05T06:25:12.725Z,59.60
2023-01-05T06:27:39.752Z,61.85
2023-01-05T06:30:07.391Z,59.45
2023-01-05T06:32:34.395Z,52.95
2023-01-05T06:35:01.611Z,50.20
2023-01-05T06:37:28.721Z,48.33
2023-01-05T06:39:56.468Z,56.30
2023-01-05T06:42:23.973Z,52.45
2023-01-05T06:44:51.412Z,53.40
2023-01-05T06:47:18.783Z,68.18
2023-01-05T06:49:45.971Z,64.50
2023-01-05T06:52:16.452Z,57.67
2023-01-05T06:54:44.208Z,58.28
2023-01-05T06:57:11.836Z,60.53
2023-01-05T06:59:39.198Z,60.65
2023-01-05T07:02:13.272Z,62.80
2023-01-05T07:04:40.302Z,56.10
2023-01-05T07:07:07.449Z,56.85
2023-01-05T07:09:34.497Z,57.92
2023-01-05T07:12:01.471Z,53.08
2023-01-05T07:14:28.404Z,50.25
2023-01-05T07:16:55.485Z,53.92
2023-01-05T07:19:22.390Z,48.88
2023-01-05T07:21:54.820Z,95.50
2023-01-05T07:24:23.718Z,85.88
2023-01-05T07:26:50.837Z,69.57
2023-01-05T07:29:17.986Z,65.85
2023-01-05T07:31:45.063Z,70.60
2023-01-05T07:34:12.186Z,76.43
2023-01-05T07:36:39.530Z,73.90
2023-01-05T07:39:06.652Z,68.82
2023-01-05T07:41:33.894Z,60.22
2023-01-05T07:44:01.009Z,57.25
2023-01-05T07:46:28.169Z,66.28
2023-01-05T07:48:55.324Z,59.80
2023-01-05T07:51:22.566Z,64.75
2023-01-05T07:53:49.679Z,91.97
2023-01-05T07:56:16.880Z,109.90
2023-01-05T07:58:44.020Z,131.18
2023-01-05T08:01:14.763Z,105.25
2023-01-05T08:03:42.019Z,109.00
2023-01-05T08:06:12.431Z,102.50
2023-01-05T08:08:40.086Z,102.38
2023-01-05T08:11:08.855Z,139.40
2023-01-05T08:13:54.551Z,121.07
2023-01-05T08:16:22.424Z,113.20
2023-01-05T08:18:49.548Z,103.65
2023-01-05T08:21:16.562Z,105.95
2023-01-05T08:23:45.921Z,105.75
2023-01-05T08:26:17.859Z,111.03
2023-01-05T08:28:45.600Z,109.20
2023-01-05T08:31:16.668Z,96.68
2023-01-05T08:33:43.943Z,100.00
2023-01-05T08:36:14.246Z,93.20
2023-01-05T08:38:48.726Z,87.13
2023-01-05T08:41:28.614Z,71.20
2023-01-05T08:43:58.349Z,78.90
2023-01-05T08:46:28.444Z,72.78
2023-01-05T08:48:58.253Z,65.75
2023-01-05T08:51:25.456Z,70.72
2023-01-05T08:53:52.797Z,64.13
2023-01-05T08:56:20.500Z,67.60
2023-01-05T08:58:47.596Z,65.45
2023-01-05T09:01:17.025Z,60.97
2023-01-05T09:03:44.463Z,57.00
2023-01-05T09:06:13.139Z,57.22
2023-01-05T09:08:42.008Z,58.28
2023-01-05T09:11:10.659Z,53.85
2023-01-05T09:13:38.175Z,53.10
2023-01-05T09:16:11.035Z,56.13
2023-01-05T09:18:39.756Z,55.97
2023-01-05T09:21:07.537Z,55.97
2023-01-05T09:23:35.085Z,56.75
2023-01-05T09:26:05.484Z,58.75
2023-01-05T09:28:32.720Z,58.45
2023-01-05T09:30:59.781Z,50.50
2023-01-05T09:33:26.823Z,46.65
2023-01-05T09:35:56.998Z,41.15
2023-01-05T09:38:24.566Z,44.65
2023-01-05T09:40:55.525Z,42.15
2023-01-05T09:43:31.714Z,59.15
2023-01-05T09:45:59.834Z,40.83
2023-01-05T09:48:27.869Z,37.10
2023-01-05T09:50:55.009Z,38.88
2023-01-05T09:53:29.544Z,45.60
2023-01-05T09:55:57.797Z,41.40
2023-01-05T09:58:34.929Z,42.30
2023-01-05T10:01:12.588Z,39.10
2023-01-05T10:04:04.104Z,44.08
2023-01-05T10:06:42.057Z,43.20
2023-01-05T10:09:14.120Z,42.97
2023-01-05T10:12:43.204Z,47.38
2023-01-05T10:15:24.089Z,40.53
2023-01-05T10:17:52.469Z,39.35
2023-01-05T10:20:35.997Z,41.47
2023-01-05T10:23:29.227Z,40.97
2023-01-05T10:26:03.375Z,44.42
2023-01-05T10:29:08.915Z,44.47
2023-01-05T10:32:02.476Z,35.95
2023-01-05T10:37:23.739Z,30.90
2023-01-05T10:40:30.262Z,37.72
2023-01-05T10:43:34.761Z,47.15
2023-01-05T10:46:31.129Z,49.60
2023-01-05T10:48:52.895Z,52.35
2023-01-05T10:51:31.071Z,51.35
2023-01-05T10:54:04.687Z,52.95
2023-01-05T10:56:34.488Z,49.90
2023-01-05T10:59:18.689Z,54.65
2023-01-05T11:01:55.997Z,63.67
2023-01-05T11:04:37.901Z,52.65
2023-01-05T11:07:12.632Z,65.85
2023-01-05T11:09:45.141Z,60.42
2023-01-05T11:12:24.818Z,63.15
2023-01-05T11:15:00.071Z,54.85
2023-01-05T11:17:29.382Z,49.58
2023-01-05T11:19:58.241Z,50.13
2023-01-05T11:22:36.084Z,46.42
2023-01-05T11:25:27.967Z,40.60
2023-01-05T11:28:16.603Z,41.53
2023-01-05T11:31:04.734Z,47.33
2023-01-05T11:33:35.337Z,39.08
2023-01-05T11:36:04.571Z,40.70
2023-01-05T11:38:32.545Z,40.10
2023-01-05T11:41:00.907Z,39.10
2023-01-05T11:43:31.780Z,33.33
2023-01-05T11:46:02.266Z,29.60
2023-01-05T11:48:32.667Z,32.65
2023-01-05T11:51:00.024Z,35.00
2023-01-05T11:53:38.164Z,60.90
2023-01-05T11:56:37.187Z,34.08
2023-01-05T11:59:04.203Z,36.25
2023-01-05T12:02:05.269Z,36.03
2023-01-05T12:04:50.640Z,34.22
2023-01-05T12:07:35.340Z,27.23
2023-01-05T12:10:28.372Z,26.95
2023-01-05T12:13:06.733Z,23.20
2023-01-05T12:15:50.136Z,20.27
2023-01-05T12:18:36.134Z,19.25
2023-01-05T12:21:08.923Z,14.20
2023-01-05T12:26:20.848Z,11.07
2023-01-05T12:35:21.902Z,12.38
2023-01-05T12:38:15.474Z,11.77
2023-01-05T12:40:42.446Z,11.23
2023-01-05T12:43:43.253Z,10.38
2023-01-05T12:46:40.631Z,11.07
2023-01-05T12:49:25.855Z,10.02
2023-01-05T12:52:06.755Z,10.85
2023-01-05T12:55:00.550Z,12.63
2023-01-05T12:57:48.940Z,12.02
2023-01-05T13:00:21.503Z,11.65
2023-01-05T13:02:49.812Z,13.98
2023-01-05T13:05:21.947Z,16.55
2023-01-05T13:07:54.777Z,10.73
2023-01-05T13:13:06.245Z,11.23
2023-01-05T13:15:41.728Z,11.38
2023-01-05T13:18:16.299Z,11.23
2023-01-05T13:20:59.711Z,11.93
2023-01-05T13:23:35.478Z,13.55
2023-01-05T13:26:15.527Z,13.02
2023-01-05T13:28:42.822Z,13.88
2023-01-05T13:31:33.134Z,13.55
2023-01-05T13:34:14.936Z,12.02
2023-01-05T13:36:57.339Z,14.75
2023-01-05T13:39:48.966Z,19.13
2023-01-05T13:42:28.151Z,13.82
2023-01-05T13:45:09.669Z,19.38
2023-01-05T13:48:10.025Z,21.08
2023-01-05T13:51:01.248Z,15.65
2023-01-05T13:53:30.180Z,16.63
2023-01-05T13:56:01.163Z,17.98
2023-01-05T13:59:19.484Z,18.17
2023-01-05T14:01:59.245Z,19.70
2023-01-05T14:04:32.941Z,18.52
2023-01-05T14:07:04.377Z,17.05
2023-01-05T14:09:37.892Z,14.27
2023-01-05T14:12:16.832Z,18.83
2023-01-05T14:15:01.048Z,13.77
2023-01-05T14:17:55.830Z,18.05
2023-01-05T14:21:09.897Z,13.10
2023-01-05T14:23:36.960Z,19.25
2023-01-05T14:26:07.798Z,13.82
2023-01-05T14:28:42.358Z,15.52
2023-01-05T14:31:15.006Z,16.00
2023-01-05T14:33:52.831Z,16.58
2023-01-05T14:36:54.740Z,16.75
2023-01-05T14:39:42.932Z,18.13
2023-01-05T14:42:12.617Z,18.70
2023-01-05T14:45:12.590Z,15.02
2023-01-05T14:47:51.229Z,12.88
2023-01-05T14:50:30.309Z,15.75
2023-01-05T14:53:31.152Z,34.50
2023-01-05T14:56:00.982Z,52.60
2023-01-05T14:58:36.867Z,64.22
2023-01-05T15:01:19.041Z,64.00
2023-01-05T15:03:51.394Z,66.33
2023-01-05T15:06:51.799Z,58.28
2023-01-05T15:09:28.161Z,46.55
2023-01-05T15:12:13.354Z,46.85
2023-01-05T15:14:40.241Z,46.05
2023-01-05T15:17:34.876Z,40.38
2023-01-05T15:20:39.848Z,31.15
2023-01-05T15:23:12.771Z,34.38
2023-01-05T15:29:01.379Z,38.47
2023-01-05T15:31:30.817Z,39.03
2023-01-05T15:34:38.378Z,32.15
2023-01-05T15:37:36.093Z,90.97
2023-01-05T15:40:07.789Z,81.72
2023-01-05T15:42:46.015Z,84.00
2023-01-05T15:45:19.954Z,74.72
2023-01-05T15:47:48.242Z,88.97
2023-01-05T15:50:21.954Z,89.75
2023-01-05T15:52:59.126Z,84.85
2023-01-05T15:55:28.055Z,71.25
2023-01-05T15:57:59.681Z,66.40
2023-01-05T16:00:34.112Z,67.25
2023-01-05T16:03:02.574Z,70.78
2023-01-05T16:05:34.252Z,66.38
2023-01-05T16:08:06.939Z,64.32
2023-01-05T16:10:51.866Z,58.80
2023-01-05T16:13:24.867Z,62.92
2023-01-05T16:18:29.710Z,66.57
2023-01-05T16:20:58.765Z,73.25
2023-01-05T16:23:49.097Z,86.20
2023-01-05T16:26:18.369Z,72.82
2023-01-05T16:28:45.905Z,58.80
2023-01-05T16:31:34.038Z,72.88
2023-01-05T16:34:12.449Z,61.42
2023-01-05T16:36:39.509Z,53.13
2023-01-05T16:39:21.952Z,55.03
2023-01-05T16:42:07.488Z,56.92
2023-01-05T16:44:36.679Z,53.05
2023-01-05T16:47:09.693Z,57.97
2023-01-05T16:52:27.413Z,35.45
2023-01-05T16:55:27.443Z,43.58
2023-01-05T16:57:55.620Z,58.92
2023-01-05T17:00:34.170Z,65.22
2023-01-05T17:03:03.403Z,65.30
2023-01-05T17:05:33.821Z,62.83
2023-01-05T17:08:28.146Z,68.25
2023-01-05T17:10:57.344Z,72.38
2023-01-05T17:13:27.583Z,61.05
2023-01-05T17:15:54.661Z,65.25
2023-01-05T17:18:26.011Z,64.70
2023-01-05T17:20:55.001Z,68.32
2023-01-05T17:23:29.599Z,58.72
2023-01-05T17:26:03.337Z,78.85
2023-01-05T17:28:30.546Z,92.30
2023-01-05T17:30:57.601Z,112.10
2023-01-05T17:33:24.807Z,118.25
2023-01-05T17:35:52.452Z,68.47
2023-01-05T17:38:19.521Z,64.72
2023-01-05T17:40:46.624Z,61.80
2023-01-05T17:43:13.815Z,67.05
2023-01-05T17:45:42.957Z,90.53
2023-01-05T17:50:42.349Z,84.22
2023-01-05T17:53:09.847Z,109.35
2023-01-05T17:55:36.988Z,88.30
2023-01-05T17:58:04.463Z,91.60
2023-01-05T18:00:39.868Z,97.68
2023-01-05T18:03:10.391Z,100.65
2023-01-05T18:05:37.472Z,113.65
2023-01-05T18:10:32.570Z,96.72
2023-01-05T18:12:59.586Z,111.72
2023-01-05T18:18:00.503Z,176.33
2023-01-05T18:20:29.186Z,125.55
2023-01-05T18:22:57.535Z,110.32
2023-01-05T18:25:24.985Z,85.53
2023-01-05T18:27:52.665Z,94.75
2023-01-05T18:30:20.013Z,108.15
2023-01-05T18:32:47.295Z,122.10
2023-01-05T18:35:15.051Z,124.32
2023-01-05T18:37:42.368Z,135.43
2023-01-05T18:40:10.852Z,122.35
2023-01-05T18:42:39.139Z,114.43
2023-01-05T18:45:19.298Z,132.73
2023-01-05T18:47:56.788Z,106.93
2023-01-05T18:50:23.817Z,122.32
2023-01-05T18:52:51.303Z,102.13
2023-01-05T18:55:18.355Z,133.88
2023-01-05T18:57:45.318Z,73.72
2023-01-05T19:00:13.071Z,96.43
2023-01-05T19:02:40.748Z,86.65
2023-01-05T19:05:09.410Z,75.95
2023-01-05T19:07:38.245Z,84.65
2023-01-05T19:10:05.742Z,77.68
2023-01-05T19:12:32.867Z,72.55
2023-01-05T19:14:59.863Z,67.40
2023-01-05T19:17:26.995Z,65.32
2023-01-05T19:19:55.172Z,53.00
2023-01-05T19:22:22.157Z,48.35
2023-01-05T19:24:49.423Z,46.72
2023-01-05T19:27:16.441Z,43.15
2023-01-05T19:29:43.476Z,67.32
2023-01-05T19:32:10.707Z,50.58
2023-01-05T19:34:38.512Z,49.40
2023-01-05T19:37:06.534Z,56.40
2023-01-05T19:39:34.811Z,57.38
2023-01-05T19:42:01.901Z,55.13
2023-01-05T19:44:28.944Z,55.38
2023-01-05T19:46:55.935Z,56.15
2023-01-05T19:49:25.596Z,56.92
2023-01-05T19:51:53.762Z,55.50
2023-01-05T19:54:22.685Z,55.88
2023-01-05T19:56:50.002Z,57.22
2023-01-05T19:59:22.949Z,62.35
2023-01-05T20:01:50.384Z,57.72
2023-01-05T20:04:17.460Z,82.20
2023-01-05T20:06:46.550Z,88.00
2023-01-05T20:09:19.686Z,92.25
2023-01-05T20:14:21.657Z,89.70
2023-01-05T20:17:00.496Z,87.22
2023-01-05T20:19:31.978Z,106.68
2023-01-05T20:22:01.918Z,126.90
2023-01-05T20:24:31.950Z,120.32
2023-01-05T20:27:01.507Z,114.30
2023-01-05T20:29:30.152Z,124.25
2023-01-05T20:32:06.765Z,120.65
2023-01-05T20:34:37.212Z,121.45
2023-01-05T20:37:07.990Z,97.30
2023-01-05T20:39:35.795Z,93.57
2023-01-05T20:42:06.195Z,80.90
2023-01-05T20:44:38.655Z,71.63
2023-01-05T20:47:07.083Z,61.47
2023-01-05T20:49:36.776Z,62.13
2023-01-05T20:52:04.991Z,53.78
2023-01-05T20:54:32.209Z,47.97
2023-01-05T20:56:59.572Z,48.17
2023-01-05T20:59:30.106Z,48.97
2023-01-05T21:01:58.347Z,47.65
2023-01-05T21:04:27.574Z,46.83
2023-01-05T21:06:59.435Z,47.38
2023-01-05T21:09:34.785Z,34.17
2023-01-05T21:12:19.700Z,49.38
2023-01-05T21:14:46.870Z,51.92
2023-01-05T21:17:23.303Z,64.57
2023-01-05T21:20:00.281Z,48.38
2023-01-05T21:22:27.983Z,37.67
2023-01-05T21:24:55.345Z,31.52
2023-01-05T21:27:22.600Z,35.80
2023-01-05T21:29:49.644Z,30.98
2023-01-05T21:32:29.654Z,36.65
2023-01-05T21:34:59.665Z,36.43
2023-01-05T21:37:26.840Z,42.08
2023-01-05T21:39:53.992Z,52.15
2023-01-05T21:42:39.946Z,48.65
2023-01-05T21:45:16.198Z,35.03
2023-01-05T21:47:43.926Z,35.50
2023-01-05T21:50:35.332Z,36.03
2023-01-05T21:53:21.239Z,29.63
2023-01-05T21:56:07.749Z,28.25
2023-01-05T21:58:35.650Z,35.53
2023-01-05T22:01:03.272Z,35.53
2023-01-05T22:03:30.442Z,38.75
2023-01-05T22:05:58.433Z,36.95
2023-01-05T22:08:28.272Z,33.10
2023-01-05T22:10:57.862Z,36.88
2023-01-05T22:13:25.257Z,34.00
2023-01-05T22:15:54.197Z,31.67
2023-01-05T22:18:22.897Z,29.25
2023-01-05T22:21:01.030Z,30.40
2023-01-05T22:23:29.474Z,27.98
2023-01-05T22:26:11.384Z,27.20
2023-01-05T22:28:42.364Z,27.75
2023-01-05T22:31:20.289Z,29.50
2023-01-05T22:33:49.770Z,26.10
2023-01-05T22:36:18.753Z,30.08
2023-01-05T22:38:48.062Z,27.85
2023-01-05T22:41:22.379Z,36.75
2023-01-05T22:43:50.184Z,54.83
2023-01-05T22:46:20.735Z,44.92
2023-01-05T22:48:50.840Z,27.30
2023-01-05T22:51:19.809Z,27.27
2023-01-05T22:53:51.872Z,24.75
2023-01-05T22:56:22.110Z,22.65
2023-01-05T22:58:52.860Z,21.92
2023-01-05T23:01:25.180Z,24.98
2023-01-05T23:03:53.892Z,24.17
2023-01-05T23:06:21.556Z,26.58
2023-01-05T23:08:50.288Z,28.23
2023-01-05T23:11:25.876Z,23.90
2023-01-05T23:13:53.562Z,27.90
2023-01-05T23:16:33.748Z,24.42
2023-01-05T23:19:12.957Z,29.85
2023-01-05T23:21:42.791Z,27.58
2023-01-05T23:24:09.992Z,30.27
2023-01-05T23:26:37.090Z,27.40
2023-01-05T23:29:04.407Z,36.83
2023-01-05T23:31:31.498Z,30.52
2023-01-05T23:33:58.540Z,24.98
2023-01-05T23:36:25.942Z,30.88
2023-01-05T23:38:53.227Z,26.55
2023-01-05T23:41:20.500Z,25.10
2023-01-05T23:43:47.684Z,31.67
2023-01-05T23:46:20.520Z,35.30
2023-01-05T23:48:48.892Z,34.33
2023-01-05T23:51:17.326Z,37.10
2023-01-05T23:53:46.241Z,31.17
2023-01-05T23:56:19.436Z,28.98
